createdAt,value
2017-11-04T00:01:36.141Z,9.64
2017-11-04T00:04:07.303Z,9.64
2017-11-04T00:06:39.206Z,9.64
2017-11-04T00:09:09.941Z,9.63
2017-11-04T00:11:39.320Z,9.64
2017-11-04T00:14:08.351Z,9.63
2017-11-04T00:16:38.531Z,9.64
2017-11-04T00:19:07.624Z,9.64
2017-11-04T00:21:37.578Z,9.64
2017-11-04T00:24:06.739Z,9.63
2017-11-04T00:26:36.032Z,9.63
2017-11-04T00:29:05.641Z,9.62
2017-11-04T00:31:35.315Z,9.61
2017-11-04T00:34:04.328Z,9.61
2017-11-04T00:36:33.063Z,9.62
2017-11-04T00:39:02.262Z,9.63
2017-11-04T00:41:31.786Z,9.62
2017-11-04T00:44:01.134Z,9.63
2017-11-04T00:46:30.705Z,9.62
2017-11-04T00:49:00.020Z,9.62
2017-11-04T00:51:28.876Z,9.63
2017-11-04T00:53:57.673Z,9.63
2017-11-04T00:56:26.446Z,9.62
2017-11-04T00:58:55.105Z,9.63
2017-11-04T01:01:24.178Z,9.63
2017-11-04T01:03:52.903Z,9.63
2017-11-04T01:06:21.809Z,9.63
2017-11-04T01:08:50.650Z,9.63
2017-11-04T01:11:20.186Z,9.63
2017-11-04T01:13:49.649Z,9.63
2017-11-04T01:16:18.717Z,9.63
2017-11-04T01:18:47.844Z,9.63
2017-11-04T01:21:16.979Z,9.63
2017-11-04T01:23:47.018Z,9.63
2017-11-04T01:26:15.885Z,9.62
2017-11-04T01:28:45.161Z,9.63
2017-11-04T01:31:13.827Z,9.63
2017-11-04T01:33:42.824Z,9.62
2017-11-04T01:36:11.513Z,9.61
2017-11-04T01:38:40.182Z,9.61
2017-11-04T01:41:08.920Z,9.60
2017-11-04T01:43:37.599Z,9.59
2017-11-04T01:46:06.340Z,9.58
2017-11-04T01:48:34.264Z,9.56
2017-11-04T01:51:02.642Z,9.55
2017-11-04T01:53:30.187Z,9.54
2017-11-04T01:55:58.845Z,9.53
2017-11-04T01:58:27.551Z,9.52
2017-11-04T02:00:56.254Z,9.50
2017-11-04T02:03:24.950Z,9.50
2017-11-04T02:05:53.376Z,9.47
2017-11-04T02:08:21.743Z,9.47
2017-11-04T02:10:50.405Z,9.44
2017-11-04T02:13:19.113Z,9.40
2017-11-04T02:15:47.781Z,9.41
2017-11-04T02:18:16.507Z,9.40
2017-11-04T02:20:45.526Z,9.38
2017-11-04T02:23:14.181Z,9.37
2017-11-04T02:25:42.922Z,9.34
2017-11-04T02:28:11.659Z,9.32
2017-11-04T02:30:40.478Z,9.29
2017-11-04T02:33:09.172Z,9.27
2017-11-04T02:35:37.889Z,9.25
2017-11-04T02:38:06.560Z,9.22
2017-11-04T02:40:35.284Z,9.20
2017-11-04T02:43:03.948Z,9.17
2017-11-04T02:45:32.638Z,9.16
2017-11-04T02:48:01.359Z,9.14
2017-11-04T02:50:30.025Z,9.12
2017-11-04T02:52:58.666Z,9.09
2017-11-04T02:55:27.446Z,9.07
2017-11-04T02:57:55.953Z,9.02
2017-11-04T03:00:24.669Z,9.01
2017-11-04T03:02:53.371Z,8.99
2017-11-04T03:05:21.824Z,8.97
2017-11-04T03:07:52.421Z,8.94
2017-11-04T03:10:21.164Z,8.93
2017-11-04T03:12:49.982Z,8.89
2017-11-04T03:15:18.627Z,8.86
2017-11-04T03:17:47.362Z,8.83
2017-11-04T03:20:16.039Z,8.81
2017-11-04T03:22:44.572Z,8.79
2017-11-04T03:25:13.318Z,8.77
2017-11-04T03:27:42.024Z,8.74
2017-11-04T03:30:10.791Z,8.72
2017-11-04T03:32:39.511Z,8.71
2017-11-04T03:35:08.282Z,8.70
2017-11-04T03:37:36.946Z,8.67
2017-11-04T03:40:05.308Z,8.64
2017-11-04T03:42:34.020Z,8.62
2017-11-04T03:45:02.712Z,8.60
2017-11-04T03:47:31.383Z,8.58
2017-11-04T03:50:00.082Z,8.56
2017-11-04T03:52:28.877Z,8.54
2017-11-04T03:54:57.866Z,8.52
2017-11-04T03:57:26.523Z,8.49
2017-11-04T03:59:55.180Z,8.47
2017-11-04T04:02:23.882Z,8.45
2017-11-04T04:04:52.626Z,8.43
2017-11-04T04:07:25.642Z,8.41
2017-11-04T04:09:59.339Z,8.38
2017-11-04T04:12:30.834Z,8.38
2017-11-04T04:14:59.720Z,8.35
2017-11-04T04:17:28.370Z,8.34
2017-11-04T04:19:57.044Z,8.32
2017-11-04T04:22:25.798Z,8.29
2017-11-04T04:24:54.465Z,8.28
2017-11-04T04:27:23.188Z,8.24
2017-11-04T04:29:51.841Z,8.23
2017-11-04T04:32:20.571Z,8.21
2017-11-04T04:34:49.310Z,8.20
2017-11-04T04:37:17.815Z,8.18
2017-11-04T04:39:45.909Z,8.16
2017-11-04T04:42:14.442Z,8.14
2017-11-04T04:44:43.061Z,8.11
2017-11-04T04:47:11.620Z,8.09
2017-11-04T04:49:41.693Z,8.06
2017-11-04T04:52:10.412Z,8.05
2017-11-04T04:54:39.173Z,8.03
2017-11-04T04:57:09.118Z,7.99
2017-11-04T04:59:37.817Z,7.97
2017-11-04T05:02:06.537Z,7.95
2017-11-04T05:04:35.263Z,7.92
2017-11-04T05:07:08.311Z,7.90
2017-11-04T05:09:37.001Z,7.87
2017-11-04T05:12:05.735Z,7.85
2017-11-04T05:14:34.389Z,7.82
2017-11-04T05:17:07.057Z,7.81
2017-11-04T05:19:35.705Z,7.79
2017-11-04T05:22:04.406Z,7.76
2017-11-04T05:24:33.071Z,7.74
2017-11-04T05:27:08.218Z,7.74
2017-11-04T05:29:37.126Z,7.71
2017-11-04T05:32:05.843Z,7.69
2017-11-04T05:34:34.493Z,7.68
2017-11-04T05:37:05.756Z,7.66
2017-11-04T05:39:34.466Z,7.65
2017-11-04T05:42:03.131Z,7.63
2017-11-04T05:44:31.826Z,7.62
2017-11-04T05:47:05.341Z,7.60
2017-11-04T05:49:33.997Z,7.59
2017-11-04T05:52:02.687Z,7.57
2017-11-04T05:54:31.351Z,7.56
2017-11-04T05:57:00.004Z,7.55
2017-11-04T05:59:28.681Z,7.52
2017-11-04T06:01:57.348Z,7.52
2017-11-04T06:04:25.912Z,7.51
2017-11-04T06:06:54.560Z,7.50
2017-11-04T06:09:23.323Z,7.48
2017-11-04T06:11:51.977Z,7.48
2017-11-04T06:14:20.665Z,7.47
2017-11-04T06:16:49.321Z,7.47
2017-11-04T06:19:18.004Z,7.46
2017-11-04T06:21:46.699Z,7.45
2017-11-04T06:24:15.350Z,7.44
2017-11-04T06:26:44.058Z,7.43
2017-11-04T06:29:12.714Z,7.43
2017-11-04T06:31:41.418Z,7.41
2017-11-04T06:34:10.131Z,7.42
2017-11-04T06:36:38.802Z,7.41
2017-11-04T06:39:07.496Z,7.40
2017-11-04T06:41:36.183Z,7.39
2017-11-04T06:44:04.871Z,7.39
2017-11-04T06:46:33.587Z,7.38
2017-11-04T06:49:02.262Z,7.38
2017-11-04T06:51:30.983Z,7.38
2017-11-04T06:53:59.631Z,7.37
2017-11-04T06:56:29.073Z,7.36
2017-11-04T06:58:57.760Z,7.36
2017-11-04T07:01:26.441Z,7.35
2017-11-04T07:03:55.198Z,7.35
2017-11-04T07:06:23.859Z,7.36
2017-11-04T07:08:52.574Z,7.35
2017-11-04T07:11:21.223Z,7.36
2017-11-04T07:13:49.874Z,7.37
2017-11-04T07:16:18.586Z,7.37
2017-11-04T07:18:47.225Z,7.37
2017-11-04T07:21:15.936Z,7.37
2017-11-04T07:23:44.600Z,7.39
2017-11-04T07:26:13.335Z,7.40
2017-11-04T07:28:42.189Z,7.42
2017-11-04T07:31:11.064Z,7.42
2017-11-04T07:33:39.797Z,7.43
2017-11-04T07:36:08.496Z,7.45
2017-11-04T07:38:37.477Z,7.47
2017-11-04T07:41:06.615Z,7.49
2017-11-04T07:43:35.585Z,7.50
2017-11-04T07:46:04.329Z,7.51
2017-11-04T07:48:33.037Z,7.53
2017-11-04T07:51:01.778Z,7.54
2017-11-04T07:53:30.467Z,7.56
2017-11-04T07:55:59.136Z,7.58
2017-11-04T07:58:27.868Z,7.59
2017-11-04T08:00:56.390Z,7.61
2017-11-04T08:03:25.063Z,7.65
2017-11-04T08:06:03.397Z,7.66
2017-11-04T08:08:33.259Z,7.69
2017-11-04T08:11:01.962Z,7.70
2017-11-04T08:13:30.470Z,7.72
2017-11-04T08:15:59.233Z,7.76
2017-11-04T08:18:27.883Z,7.76
2017-11-04T08:20:56.587Z,7.79
2017-11-04T08:23:25.239Z,7.81
2017-11-04T08:25:53.935Z,7.82
2017-11-04T08:28:22.581Z,7.84
2017-11-04T08:30:51.305Z,7.85
2017-11-04T08:33:20.121Z,7.86
2017-11-04T08:35:48.832Z,7.89
2017-11-04T08:38:17.533Z,7.91
2017-11-04T08:40:46.278Z,7.93
2017-11-04T08:43:14.847Z,7.93
2017-11-04T08:45:43.430Z,7.94
2017-11-04T08:48:11.945Z,7.96
2017-11-04T08:50:40.511Z,8.00
2017-11-04T08:53:09.028Z,8.02
2017-11-04T08:55:37.584Z,8.01
2017-11-04T08:58:06.248Z,8.03
2017-11-04T09:00:35.335Z,8.07
2017-11-04T09:03:05.962Z,8.10
2017-11-04T09:05:34.671Z,8.14
2017-11-04T09:08:03.357Z,8.15
2017-11-04T09:10:32.235Z,8.16
2017-11-04T09:13:00.927Z,8.19
2017-11-04T09:15:29.573Z,8.21
2017-11-04T09:17:58.227Z,8.23
2017-11-04T09:20:26.966Z,8.24
2017-11-04T09:22:55.677Z,8.27
2017-11-04T09:25:24.403Z,8.30
2017-11-04T09:27:53.255Z,8.33
2017-11-04T09:30:22.668Z,8.36
2017-11-04T09:32:51.911Z,8.40
2017-11-04T09:35:20.589Z,8.43
2017-11-04T09:37:49.332Z,8.46
2017-11-04T09:40:18.023Z,8.49
2017-11-04T09:42:46.735Z,8.52
2017-11-04T09:45:15.408Z,8.55
2017-11-04T09:47:44.259Z,8.59
2017-11-04T09:50:12.996Z,8.63
2017-11-04T09:52:47.810Z,8.67
2017-11-04T09:55:16.459Z,8.70
2017-11-04T09:57:45.142Z,8.74
2017-11-04T10:00:13.885Z,8.77
2017-11-04T10:02:42.544Z,8.80
2017-11-04T10:05:11.203Z,8.84
2017-11-04T10:07:40.226Z,8.88
2017-11-04T10:10:08.878Z,8.90
2017-11-04T10:12:37.609Z,8.95
2017-11-04T10:15:06.342Z,8.98
2017-11-04T10:17:35.066Z,9.01
2017-11-04T10:20:03.802Z,9.04
2017-11-04T10:22:32.534Z,9.07
2017-11-04T10:25:01.183Z,9.12
2017-11-04T10:27:30.292Z,9.16
2017-11-04T10:29:58.985Z,9.18
2017-11-04T10:32:27.681Z,9.22
2017-11-04T10:34:56.386Z,9.25
2017-11-04T10:37:25.039Z,9.29
2017-11-04T10:39:53.474Z,9.33
2017-11-04T10:42:21.643Z,9.36
2017-11-04T10:44:50.337Z,9.38
2017-11-04T10:47:18.930Z,9.43
2017-11-04T10:49:47.613Z,9.46
2017-11-04T10:52:16.314Z,9.49
2017-11-04T10:54:44.963Z,9.51
2017-11-04T10:57:13.668Z,9.55
2017-11-04T10:59:42.322Z,9.56
2017-11-04T11:02:10.996Z,9.60
2017-11-04T11:04:39.715Z,9.61
2017-11-04T11:07:11.168Z,9.64
2017-11-04T11:09:39.940Z,9.65
2017-11-04T11:12:08.474Z,9.67
2017-11-04T11:14:37.191Z,9.69
2017-11-04T11:17:07.960Z,9.71
2017-11-04T11:19:36.610Z,9.74
2017-11-04T11:22:05.314Z,9.77
2017-11-04T11:24:34.016Z,9.79
2017-11-04T11:27:08.984Z,9.82
2017-11-04T11:29:37.948Z,9.84
2017-11-04T11:32:06.751Z,9.86
2017-11-04T11:34:35.254Z,9.88
2017-11-04T11:37:08.388Z,9.91
2017-11-04T11:39:37.043Z,9.93
2017-11-04T11:42:05.801Z,9.96
2017-11-04T11:44:34.528Z,9.98
2017-11-04T11:47:07.094Z,10.01
2017-11-04T11:49:35.795Z,10.04
2017-11-04T11:52:04.617Z,10.06
2017-11-04T11:54:33.363Z,10.08
2017-11-04T11:57:05.620Z,10.10
2017-11-04T11:59:34.583Z,10.13
2017-11-04T12:02:03.290Z,10.14
2017-11-04T12:04:31.942Z,10.18
2017-11-04T12:07:00.642Z,10.18
2017-11-04T12:09:29.309Z,10.22
2017-11-04T12:11:58.097Z,10.24
2017-11-04T12:14:26.802Z,10.27
2017-11-04T12:16:55.455Z,10.29
2017-11-04T12:19:24.171Z,10.30
2017-11-04T12:21:52.856Z,10.33
2017-11-04T12:24:21.510Z,10.35
2017-11-04T12:26:50.223Z,10.37
2017-11-04T12:29:18.934Z,10.39
2017-11-04T12:31:47.769Z,10.43
2017-11-04T12:34:16.422Z,10.44
2017-11-04T12:36:45.155Z,10.47
2017-11-04T12:39:13.804Z,10.50
2017-11-04T12:41:42.535Z,10.53
2017-11-04T12:44:11.316Z,10.54
2017-11-04T12:46:39.978Z,10.58
2017-11-04T12:49:08.563Z,10.60
2017-11-04T12:51:37.261Z,10.61
2017-11-04T12:54:06.007Z,10.63
2017-11-04T12:56:34.687Z,10.65
2017-11-04T12:59:03.485Z,10.67
2017-11-04T13:01:32.147Z,10.69
2017-11-04T13:04:00.871Z,10.70
2017-11-04T13:06:29.539Z,10.72
2017-11-04T13:08:58.243Z,10.75
2017-11-04T13:11:26.892Z,10.76
2017-11-04T13:13:55.593Z,10.77
2017-11-04T13:16:24.250Z,10.79
2017-11-04T13:18:52.954Z,10.80
2017-11-04T13:21:21.310Z,10.83
2017-11-04T13:23:50.078Z,10.83
2017-11-04T13:26:18.736Z,10.85
2017-11-04T13:28:47.530Z,10.85
2017-11-04T13:31:16.212Z,10.87
2017-11-04T13:33:44.908Z,10.90
2017-11-04T13:36:13.655Z,10.91
2017-11-04T13:38:42.319Z,10.92
2017-11-04T13:41:11.032Z,10.91
2017-11-04T13:43:39.715Z,10.94
2017-11-04T13:46:08.463Z,10.95
2017-11-04T13:48:37.137Z,10.95
2017-11-04T13:51:05.850Z,10.97
2017-11-04T13:53:34.633Z,10.96
2017-11-04T13:56:03.341Z,10.96
2017-11-04T13:58:31.986Z,10.97
2017-11-04T14:01:05.042Z,10.98
2017-11-04T14:06:39.451Z,10.97
2017-11-04T14:09:26.825Z,10.98
2017-11-04T14:12:05.158Z,10.98
2017-11-04T14:14:49.317Z,10.97
2017-11-04T14:20:23.187Z,10.96
2017-11-04T14:23:06.968Z,10.94
2017-11-04T14:25:52.624Z,10.94
2017-11-04T14:28:22.351Z,10.94
2017-11-04T14:30:51.116Z,10.94
2017-11-04T14:33:19.771Z,10.93
2017-11-04T14:35:48.502Z,10.92
2017-11-04T14:38:17.167Z,10.92
2017-11-04T14:40:45.839Z,10.91
2017-11-04T14:43:14.564Z,10.89
2017-11-04T14:45:43.293Z,10.88
2017-11-04T14:48:11.998Z,10.89
2017-11-04T14:50:40.656Z,10.88
2017-11-04T14:53:09.363Z,10.87
2017-11-04T14:55:38.039Z,10.86
2017-11-04T14:58:06.563Z,10.86
2017-11-04T15:00:35.268Z,10.83
2017-11-04T15:03:03.984Z,10.84
2017-11-04T15:05:32.670Z,10.83
2017-11-04T15:08:01.295Z,10.80
2017-11-04T15:10:29.959Z,10.80
2017-11-04T15:12:58.670Z,10.80
2017-11-04T15:15:27.343Z,10.78
2017-11-04T15:17:56.137Z,10.77
2017-11-04T15:20:24.806Z,10.75
2017-11-04T15:22:53.483Z,10.75
2017-11-04T15:25:22.189Z,10.73
2017-11-04T15:27:50.931Z,10.72
2017-11-04T15:30:19.716Z,10.70
2017-11-04T15:32:48.422Z,10.70
2017-11-04T15:35:17.155Z,10.70
2017-11-04T15:37:45.814Z,10.67
2017-11-04T15:40:14.509Z,10.65
2017-11-04T15:42:43.261Z,10.64
2017-11-04T15:45:11.982Z,10.64
2017-11-04T15:47:40.707Z,10.63
2017-11-04T15:50:09.084Z,10.58
2017-11-04T15:52:37.745Z,10.59
2017-11-04T15:55:06.479Z,10.55
2017-11-04T15:57:35.182Z,10.55
2017-11-04T16:00:03.935Z,10.54
2017-11-04T16:02:32.663Z,10.51
2017-11-04T16:05:01.379Z,10.48
2017-11-04T16:07:30.043Z,10.47
2017-11-04T16:09:58.718Z,10.45
2017-11-04T16:12:27.405Z,10.43
2017-11-04T16:14:56.066Z,10.41
2017-11-04T16:17:24.796Z,10.39
2017-11-04T16:19:54.907Z,10.38
2017-11-04T16:22:25.357Z,10.34
2017-11-04T16:24:54.069Z,10.32
2017-11-04T16:27:22.802Z,10.31
2017-11-04T16:29:51.566Z,10.28
2017-11-04T16:32:20.303Z,10.26
2017-11-04T16:34:48.970Z,10.23
2017-11-04T16:37:17.644Z,10.21
2017-11-04T16:39:46.356Z,10.20
2017-11-04T16:42:20.981Z,10.17
2017-11-04T16:45:01.804Z,10.15
2017-11-04T16:47:33.362Z,10.13
2017-11-04T16:50:07.017Z,10.11
2017-11-04T16:52:35.864Z,10.11
2017-11-04T16:55:05.148Z,10.08
2017-11-04T16:57:33.834Z,10.07
2017-11-04T17:00:02.573Z,10.06
2017-11-04T17:02:31.235Z,10.05
2017-11-04T17:04:59.731Z,10.03
2017-11-04T17:07:28.404Z,10.02
2017-11-04T17:10:10.095Z,10.01
2017-11-04T17:12:54.829Z,9.99
2017-11-04T17:15:44.546Z,9.98
2017-11-04T17:18:19.852Z,9.96
2017-11-04T17:23:41.528Z,9.94
2017-11-04T17:26:10.954Z,9.93
2017-11-04T17:28:51.607Z,9.92
2017-11-04T17:31:22.989Z,9.91
2017-11-04T17:34:05.796Z,9.90
2017-11-04T17:36:43.141Z,9.88
2017-11-04T17:39:19.303Z,9.87
2017-11-04T17:41:48.616Z,9.86
2017-11-04T17:44:20.761Z,9.86
2017-11-04T17:46:58.428Z,9.84
2017-11-04T17:49:37.979Z,9.83
2017-11-04T17:52:11.175Z,9.82
2017-11-04T17:54:52.064Z,9.80
2017-11-04T17:57:32.788Z,9.79
2017-11-04T18:00:12.002Z,9.77
2017-11-04T18:02:50.669Z,9.74
2017-11-04T18:05:33.282Z,9.73
2017-11-04T18:08:17.390Z,9.72
2017-11-04T18:10:57.131Z,9.70
2017-11-04T18:13:40.192Z,9.70
2017-11-04T18:16:21.956Z,9.66
2017-11-04T18:18:59.864Z,9.65
2017-11-04T18:21:36.069Z,9.64
2017-11-04T18:24:14.444Z,9.63
2017-11-04T18:26:52.313Z,9.61
2017-11-04T18:29:31.561Z,9.60
2017-11-04T18:32:10.580Z,9.58
2017-11-04T18:34:53.270Z,9.56
2017-11-04T18:37:28.431Z,9.54
2017-11-04T18:40:03.774Z,9.53
2017-11-04T18:42:43.595Z,9.52
2017-11-04T18:45:25.570Z,9.51
2017-11-04T18:47:56.196Z,9.49
2017-11-04T18:50:24.911Z,9.48
2017-11-04T18:52:57.330Z,9.47
2017-11-04T18:55:26.124Z,9.46
2017-11-04T18:57:54.867Z,9.44
2017-11-04T19:00:32.465Z,9.43
2017-11-04T19:03:13.126Z,9.41
2017-11-04T19:05:52.076Z,9.39
2017-11-04T19:08:34.243Z,9.38
2017-11-04T19:11:15.085Z,9.36
2017-11-04T19:13:57.225Z,9.34
2017-11-04T19:16:37.180Z,9.32
2017-11-04T19:19:12.785Z,9.31
2017-11-04T19:21:49.684Z,9.28
2017-11-04T19:24:23.494Z,9.28
2017-11-04T19:26:59.190Z,9.28
2017-11-04T19:29:37.555Z,9.26
2017-11-04T19:32:09.795Z,9.26
2017-11-04T19:34:53.864Z,9.25
2017-11-04T19:37:31.148Z,9.24
2017-11-04T19:40:13.977Z,9.23
2017-11-04T19:42:49.776Z,9.23
2017-11-04T19:45:27.483Z,9.21
2017-11-04T19:48:02.568Z,9.21
2017-11-04T19:50:34.684Z,9.21
2017-11-04T19:53:16.808Z,9.21
2017-11-04T19:55:56.392Z,9.21
2017-11-04T19:58:29.176Z,9.21
2017-11-04T20:01:03.367Z,9.21
2017-11-04T20:03:33.294Z,9.22
2017-11-04T20:06:10.557Z,9.22
2017-11-04T20:08:51.641Z,9.23
2017-11-04T20:11:31.392Z,9.23
2017-11-04T20:14:11.759Z,9.24
2017-11-04T20:16:48.319Z,9.26
2017-11-04T20:19:29.511Z,9.27
2017-11-04T20:22:09.358Z,9.28
2017-11-04T20:24:50.726Z,9.29
2017-11-04T20:27:35.202Z,9.31
2017-11-04T20:30:20.803Z,9.32
2017-11-04T20:33:04.252Z,9.32
2017-11-04T20:35:50.440Z,9.33
2017-11-04T20:41:27.525Z,9.37
2017-11-04T20:44:11.912Z,9.38
2017-11-04T20:47:02.234Z,9.40
2017-11-04T20:49:47.467Z,9.41
2017-11-04T20:52:31.815Z,9.42
2017-11-04T20:55:02.884Z,9.43
2017-11-04T20:57:32.011Z,9.47
2017-11-04T21:00:00.714Z,9.49
2017-11-04T21:02:29.442Z,9.50
2017-11-04T21:04:58.114Z,9.51
2017-11-04T21:07:26.894Z,9.54
2017-11-04T21:09:55.548Z,9.55
2017-11-04T21:12:24.234Z,9.57
2017-11-04T21:14:52.902Z,9.59
2017-11-04T21:17:21.599Z,9.60
2017-11-04T21:19:50.245Z,9.63
2017-11-04T21:22:18.987Z,9.63
2017-11-04T21:24:49.595Z,9.65
2017-11-04T21:27:19.603Z,9.67
2017-11-04T21:29:48.395Z,9.68
2017-11-04T21:32:18.080Z,9.70
2017-11-04T21:34:46.794Z,9.71
2017-11-04T21:37:15.454Z,9.72
2017-11-04T21:39:44.185Z,9.75
2017-11-04T21:42:12.831Z,9.77
2017-11-04T21:44:41.483Z,9.77
2017-11-04T21:47:10.174Z,9.79
2017-11-04T21:49:38.829Z,9.81
2017-11-04T21:52:07.534Z,9.81
2017-11-04T21:54:36.213Z,9.84
2017-11-04T21:57:08.591Z,9.84
2017-11-04T21:59:37.255Z,9.86
2017-11-04T22:02:05.959Z,9.87
2017-11-04T22:04:34.622Z,9.90
2017-11-04T22:07:03.363Z,9.91
2017-11-04T22:09:32.051Z,9.93
2017-11-04T22:12:00.745Z,9.94
2017-11-04T22:14:29.451Z,9.95
2017-11-04T22:16:58.147Z,9.97
2017-11-04T22:19:26.806Z,10.00
2017-11-04T22:21:55.535Z,10.00
2017-11-04T22:24:24.198Z,10.01
2017-11-04T22:26:52.863Z,10.03
2017-11-04T22:29:21.610Z,10.04
2017-11-04T22:31:50.277Z,10.05
2017-11-04T22:34:18.987Z,10.07
2017-11-04T22:36:47.646Z,10.08
2017-11-04T22:39:16.414Z,10.09
2017-11-04T22:41:45.098Z,10.10
2017-11-04T22:44:13.743Z,10.11
2017-11-04T22:46:42.463Z,10.13
2017-11-04T22:49:11.177Z,10.14
2017-11-04T22:51:39.837Z,10.17
2017-11-04T22:54:08.554Z,10.18
2017-11-04T22:56:37.085Z,10.19
2017-11-04T22:59:05.766Z,10.21
2017-11-04T23:01:34.503Z,10.22
2017-11-04T23:04:03.207Z,10.24
2017-11-04T23:06:32.017Z,10.26
2017-11-04T23:09:00.722Z,10.28
2017-11-04T23:11:29.391Z,10.30
2017-11-04T23:13:58.102Z,10.31
2017-11-04T23:16:26.801Z,10.33
2017-11-04T23:18:55.625Z,10.35
2017-11-04T23:21:24.327Z,10.37
2017-11-04T23:23:52.978Z,10.39
2017-11-04T23:26:21.638Z,10.40
2017-11-04T23:28:50.357Z,10.42
2017-11-04T23:31:19.302Z,10.43
2017-11-04T23:33:48.198Z,10.45
2017-11-04T23:36:16.955Z,10.47
2017-11-04T23:38:45.627Z,10.50
2017-11-04T23:41:14.339Z,10.51
2017-11-04T23:43:43.002Z,10.53
2017-11-04T23:46:11.658Z,10.54
2017-11-04T23:48:40.361Z,10.56
2017-11-04T23:51:09.096Z,10.59
2017-11-04T23:53:37.758Z,10.60
2017-11-04T23:56:06.272Z,10.62
2017-11-04T23:58:35.001Z,10.63
